Time,TemperatureF,DewpointF,PressureIn,WindDirection,WindDirectionDegrees,WindSpeedMPH,WindSpeedGustMPH,Humidity,HourlyPrecipIn,Conditions,Clouds,dailyrainin,SolarRadiationWatts/m^2,SoftwareType,DateUTC
2013-01-18 00:02:00,9.0,7.0,-100.00,North,-999,-999.0,3.0,92,0.00,,,-99.99,0.000000,,2013-01-18 07:02:00,
2013-01-18 00:11:00,8.0,6.0,-100.00,North,-999,-999.0,2.0,91,0.00,,,-99.99,0.000000,,2013-01-18 07:11:00,
2013-01-18 00:22:00,7.0,5.0,-100.00,North,-999,-999.0,1.0,91,0.00,,,-99.99,0.000000,,2013-01-18 07:22:00,
2013-01-18 00:32:00,6.0,4.0,-100.00,North,-999,-999.0,0.0,90,0.00,,,-99.99,0.000000,,2013-01-18 07:32:00,
2013-01-18 00:42:00,6.0,4.0,-100.00,North,-999,-999.0,3.0,91,0.00,,,-99.99,0.000000,,2013-01-18 07:42:00,
2013-01-18 00:52:00,6.0,4.0,-100.00,North,-999,-999.0,3.0,90,0.00,,,-99.99,0.000000,,2013-01-18 07:52:00,
2013-01-18 01:02:00,6.0,4.0,-100.00,North,-999,-999.0,3.0,91,0.00,,,-99.99,0.000000,,2013-01-18 08:02:00,
2013-01-18 01:11:00,5.0,3.0,-100.00,North,-999,-999.0,3.0,89,0.00,,,-99.99,0.000000,,2013-01-18 08:11:00,
2013-01-18 01:22:00,5.0,3.0,-100.00,North,-999,-999.0,4.0,91,0.00,,,-99.99,0.000000,,2013-01-18 08:22:00,
2013-01-18 01:32:00,5.0,3.0,-100.00,North,-999,-999.0,4.0,91,0.00,,,-99.99,0.000000,,2013-01-18 08:32:00,
2013-01-18 01:42:00,5.0,2.0,-100.00,North,-999,-999.0,2.0,90,0.00,,,-99.99,0.000000,,2013-01-18 08:42:00,
2013-01-18 01:50:00,4.0,1.0,-100.00,North,-999,-999.0,3.0,88,0.00,,,-99.99,0.000000,,2013-01-18 08:50:00,
2013-01-18 01:52:00,5.0,3.0,-100.00,North,-999,-999.0,3.0,90,0.00,,,-99.99,0.000000,,2013-01-18 08:52:00,
2013-01-18 02:02:00,5.0,3.0,-100.00,North,-999,-999.0,3.0,90,0.00,,,-99.99,0.000000,,2013-01-18 09:02:00,
2013-01-18 02:12:00,4.0,1.0,-100.00,North,-999,-999.0,3.0,88,0.00,,,-99.99,0.000000,,2013-01-18 09:12:00,
2013-01-18 02:22:00,4.0,1.0,-100.00,North,-999,-999.0,3.0,88,0.00,,,-99.99,0.000000,,2013-01-18 09:22:00,
2013-01-18 02:32:00,4.0,1.0,-100.00,North,-999,-999.0,3.0,88,0.00,,,-99.99,0.000000,,2013-01-18 09:32:00,
2013-01-18 02:42:00,4.0,1.0,-100.00,North,-999,-999.0,3.0,88,0.00,,,-99.99,0.000000,,2013-01-18 09:42:00,
2013-01-18 03:22:00,4.0,1.0,-100.00,North,-999,-999.0,2.0,89,0.00,,,-99.99,0.000000,,2013-01-18 10:22:00,
2013-01-18 03:33:00,5.0,3.0,-100.00,North,-999,-999.0,5.0,92,0.00,,,-99.99,0.000000,,2013-01-18 10:33:00,
2013-01-18 03:43:00,7.0,5.0,-100.00,North,-999,-999.0,7.0,91,0.00,,,-99.99,0.000000,,2013-01-18 10:43:00,
2013-01-18 03:52:00,7.0,5.0,-100.00,North,-999,-999.0,7.0,91,0.00,,,-99.99,0.000000,,2013-01-18 10:52:00,
2013-01-18 04:02:00,7.0,5.0,-100.00,North,-999,-999.0,7.0,91,0.00,,,-99.99,0.000000,,2013-01-18 11:02:00,
2013-01-18 04:12:00,7.0,5.0,-100.00,North,-999,-999.0,6.0,91,0.00,,,-99.99,0.000000,,2013-01-18 11:12:00,
2013-01-18 04:22:00,6.0,3.0,-100.00,North,-999,-999.0,5.0,89,0.00,,,-99.99,0.000000,,2013-01-18 11:22:00,
2013-01-18 04:32:00,6.0,3.0,-100.00,North,-999,-999.0,5.0,89,0.00,,,-99.99,0.000000,,2013-01-18 11:32:00,
2013-01-18 04:42:00,4.0,2.0,-100.00,North,-999,-999.0,3.0,89,0.00,,,-99.99,0.000000,,2013-01-18 11:42:00,
2013-01-18 04:52:00,4.0,2.0,-100.00,North,-999,-999.0,2.0,89,0.00,,,-99.99,0.000000,,2013-01-18 11:52:00,
2013-01-18 05:02:00,4.0,2.0,-100.00,North,-999,-999.0,3.0,89,0.00,,,-99.99,0.000000,,2013-01-18 12:02:00,
2013-01-18 05:12:00,5.0,2.0,-100.00,North,-999,-999.0,2.0,89,0.00,,,-99.99,0.000000,,2013-01-18 12:12:00,
2013-01-18 05:22:00,4.0,1.0,-100.00,North,-999,-999.0,3.0,88,0.00,,,-99.99,0.000000,,2013-01-18 12:22:00,
2013-01-18 05:32:00,4.0,1.0,-100.00,North,-999,-999.0,3.0,88,0.00,,,-99.99,0.000000,,2013-01-18 12:32:00,
2013-01-18 05:42:00,4.0,1.0,-100.00,North,-999,-999.0,2.0,89,0.00,,,-99.99,0.000000,,2013-01-18 12:42:00,
2013-01-18 05:52:00,5.0,2.0,-100.00,North,-999,-999.0,3.0,89,0.00,,,-99.99,0.000000,,2013-01-18 12:52:00,
2013-01-18 06:02:00,5.0,3.0,-100.00,North,-999,-999.0,2.0,90,0.00,,,-99.99,0.000000,,2013-01-18 13:02:00,
2013-01-18 06:12:00,6.0,3.0,-100.00,North,-999,-999.0,4.0,89,0.00,,,-99.99,0.000000,,2013-01-18 13:12:00,
2013-01-18 06:22:00,6.0,4.0,-100.00,North,-999,-999.0,1.0,89,0.00,,,-99.99,0.000000,,2013-01-18 13:22:00,
2013-01-18 06:33:00,6.0,3.0,-100.00,North,-999,-999.0,3.0,89,0.00,,,-99.99,0.000000,,2013-01-18 13:33:00,
2013-01-18 06:42:00,6.0,3.0,-100.00,North,-999,-999.0,2.0,89,0.00,,,-99.99,0.000000,,2013-01-18 13:42:00,
2013-01-18 06:50:00,5.0,3.0,-100.00,North,-999,-999.0,2.0,89,0.00,,,-99.99,0.000000,,2013-01-18 13:50:00,
2013-01-18 06:52:00,6.0,3.0,-100.00,North,-999,-999.0,1.0,89,0.00,,,-99.99,0.000000,,2013-01-18 13:52:00,
2013-01-18 07:02:00,5.0,3.0,-100.00,North,-999,-999.0,2.0,89,0.00,,,-99.99,0.000000,,2013-01-18 14:02:00,
2013-01-18 07:12:00,5.0,3.0,-100.00,North,-999,-999.0,2.0,89,0.00,,,-99.99,0.000000,,2013-01-18 14:12:00,
2013-01-18 07:22:00,5.0,3.0,-100.00,North,-999,-999.0,2.0,89,0.00,,,-99.99,0.000000,,2013-01-18 14:22:00,
2013-01-18 07:33:00,5.0,3.0,-100.00,North,-999,-999.0,2.0,89,0.00,,,-99.99,0.000000,,2013-01-18 14:33:00,
2013-01-18 07:42:00,5.0,3.0,-100.00,North,-999,-999.0,2.0,89,0.00,,,-99.99,0.000000,,2013-01-18 14:42:00,
2013-01-18 08:23:00,5.0,3.0,-100.00,North,-999,-999.0,2.0,89,0.00,,,-99.99,8.000000,,2013-01-18 15:23:00,
2013-01-18 08:34:00,5.0,2.0,-100.00,North,-999,-999.0,2.0,88,0.00,,,-99.99,11.000000,,2013-01-18 15:34:00,
2013-01-18 08:43:00,5.0,2.0,-100.00,North,-999,-999.0,2.0,88,0.00,,,-99.99,14.000000,,2013-01-18 15:43:00,
2013-01-18 08:53:00,5.0,2.0,-100.00,North,-999,-999.0,2.0,88,0.00,,,-99.99,26.000000,,2013-01-18 15:53:00,
2013-01-18 09:02:00,5.0,2.0,-100.00,North,-999,-999.0,3.0,88,0.00,,,-99.99,79.000000,,2013-01-18 16:02:00,
2013-01-18 09:12:00,5.0,3.0,-100.00,North,-999,-999.0,2.0,89,0.00,,,-99.99,113.000000,,2013-01-18 16:12:00,
2013-01-18 09:22:00,4.0,1.0,-100.00,North,-999,-999.0,6.0,86,0.00,,,-99.99,147.000000,,2013-01-18 16:22:00,
2013-01-18 09:32:00,5.0,2.0,-100.00,North,-999,-999.0,6.0,88,0.00,,,-99.99,207.000000,,2013-01-18 16:32:00,
2013-01-18 09:42:00,6.0,3.0,-100.00,North,-999,-999.0,4.0,87,0.00,,,-99.99,181.000000,,2013-01-18 16:42:00,
2013-01-18 09:52:00,8.0,6.0,-100.00,North,-999,-999.0,3.0,90,0.00,,,-99.99,259.000000,,2013-01-18 16:52:00,
2013-01-18 10:02:00,9.0,7.0,-100.00,North,-999,-999.0,2.0,91,0.00,,,-99.99,240.000000,,2013-01-18 17:02:00,
2013-01-18 10:12:00,11.0,9.0,-100.00,North,-999,-999.0,1.0,92,0.00,,,-99.99,257.000000,,2013-01-18 17:12:00,
2013-01-18 10:22:00,8.0,5.0,-100.00,North,-999,-999.0,3.0,88,0.00,,,-99.99,225.000000,,2013-01-18 17:22:00,
2013-01-18 10:33:00,7.0,5.0,-100.00,North,-999,-999.0,3.0,89,0.00,,,-99.99,239.000000,,2013-01-18 17:33:00,
2013-01-18 10:42:00,8.0,6.0,-100.00,North,-999,-999.0,2.0,90,0.00,,,-99.99,244.000000,,2013-01-18 17:42:00,
2013-01-18 10:52:00,9.0,7.0,-100.00,North,-999,-999.0,2.0,91,0.00,,,-99.99,272.000000,,2013-01-18 17:52:00,
2013-01-18 11:03:00,10.0,7.0,-100.00,North,-999,-999.0,2.0,90,0.00,,,-99.99,253.000000,,2013-01-18 18:03:00,
2013-01-18 11:12:00,10.0,7.0,-100.00,North,-999,-999.0,3.0,86,0.00,,,-99.99,306.000000,,2013-01-18 18:12:00,
2013-01-18 11:22:00,11.0,8.0,-100.00,North,-999,-999.0,2.0,88,0.00,,,-99.99,307.000000,,2013-01-18 18:22:00,
2013-01-18 11:32:00,12.0,8.0,-100.00,North,-999,-999.0,1.0,86,0.00,,,-99.99,320.000000,,2013-01-18 18:32:00,
2013-01-18 11:42:00,13.0,10.0,-100.00,North,-999,-999.0,0.0,85,0.00,,,-99.99,377.000000,,2013-01-18 18:42:00,
2013-01-18 11:50:00,14.0,9.0,-100.00,North,-999,-999.0,3.0,81,0.00,,,-99.99,403.000000,,2013-01-18 18:50:00,
2013-01-18 11:52:00,14.0,11.0,-100.00,North,-999,-999.0,2.0,86,0.00,,,-99.99,407.000000,,2013-01-18 18:52:00,
2013-01-18 12:02:00,15.0,10.0,-100.00,North,-999,-999.0,2.0,81,0.00,,,-99.99,460.000000,,2013-01-18 19:02:00,
2013-01-18 12:12:00,14.0,9.0,-100.00,North,-999,-999.0,3.0,81,0.00,,,-99.99,403.000000,,2013-01-18 19:12:00,
2013-01-18 12:22:00,14.0,9.0,-100.00,North,-999,-999.0,3.0,81,0.00,,,-99.99,403.000000,,2013-01-18 19:22:00,
2013-01-18 12:32:00,14.0,9.0,-100.00,North,-999,-999.0,3.0,81,0.00,,,-99.99,403.000000,,2013-01-18 19:32:00,
2013-01-18 12:42:00,14.0,9.0,-100.00,North,-999,-999.0,3.0,81,0.00,,,-99.99,403.000000,,2013-01-18 19:42:00,
2013-01-18 13:23:00,17.0,9.0,-100.00,North,-999,-999.0,3.0,70,0.00,,,-99.99,532.000000,,2013-01-18 20:23:00,
2013-01-18 13:33:00,17.0,9.0,-100.00,North,-999,-999.0,3.0,70,0.00,,,-99.99,532.000000,,2013-01-18 20:33:00,
2013-01-18 13:43:00,16.0,7.0,-100.00,North,-999,-999.0,3.0,65,0.00,,,-99.99,577.000000,,2013-01-18 20:43:00,
2013-01-18 13:53:00,17.0,7.0,-100.00,North,-999,-999.0,3.0,64,0.00,,,-99.99,571.000000,,2013-01-18 20:53:00,
2013-01-18 14:02:00,18.0,6.0,-100.00,North,-999,-999.0,3.0,60,0.00,,,-99.99,563.000000,,2013-01-18 21:02:00,
2013-01-18 14:12:00,16.0,6.0,-100.00,North,-999,-999.0,4.0,62,0.00,,,-99.99,545.000000,,2013-01-18 21:12:00,
2013-01-18 14:22:00,15.0,7.0,-100.00,North,-999,-999.0,5.0,70,0.00,,,-99.99,526.000000,,2013-01-18 21:22:00,
2013-01-18 14:32:00,16.0,7.0,-100.00,North,-999,-999.0,5.0,66,0.00,,,-99.99,517.000000,,2013-01-18 21:32:00,
2013-01-18 14:42:00,18.0,7.0,-100.00,North,-999,-999.0,2.0,61,0.00,,,-99.99,500.000000,,2013-01-18 21:42:00,
2013-01-18 14:52:00,18.0,7.0,-100.00,North,-999,-999.0,3.0,62,0.00,,,-99.99,480.000000,,2013-01-18 21:52:00,
2013-01-18 15:02:00,17.0,6.0,-100.00,North,-999,-999.0,4.0,63,0.00,,,-99.99,448.000000,,2013-01-18 22:02:00,
2013-01-18 15:11:00,16.0,6.0,-100.00,North,-999,-999.0,5.0,64,0.00,,,-99.99,426.000000,,2013-01-18 22:11:00,
2013-01-18 15:22:00,15.0,7.0,-100.00,North,-999,-999.0,4.0,68,0.00,,,-99.99,399.000000,,2013-01-18 22:22:00,
2013-01-18 15:32:00,15.0,7.0,-100.00,North,-999,-999.0,4.0,68,0.00,,,-99.99,399.000000,,2013-01-18 22:32:00,
2013-01-18 15:42:00,15.0,7.0,-100.00,North,-999,-999.0,4.0,69,0.00,,,-99.99,376.000000,,2013-01-18 22:42:00,
2013-01-18 15:52:00,17.0,7.0,-100.00,North,-999,-999.0,3.0,66,0.00,,,-99.99,324.000000,,2013-01-18 22:52:00,
2013-01-18 16:02:00,17.0,7.0,-100.00,North,-999,-999.0,2.0,64,0.00,,,-99.99,291.000000,,2013-01-18 23:02:00,
2013-01-18 16:12:00,17.0,7.0,-100.00,North,-999,-999.0,2.0,63,0.00,,,-99.99,261.000000,,2013-01-18 23:12:00,
2013-01-18 16:22:00,19.0,8.0,-100.00,North,-999,-999.0,1.0,61,0.00,,,-99.99,236.000000,,2013-01-18 23:22:00,
2013-01-18 16:32:00,17.0,6.0,-100.00,North,-999,-999.0,3.0,63,0.00,,,-99.99,205.000000,,2013-01-18 23:32:00,
2013-01-18 16:42:00,15.0,6.0,-100.00,North,-999,-999.0,4.0,68,0.00,,,-99.99,174.000000,,2013-01-18 23:42:00,
2013-01-18 16:50:00,14.0,6.0,-100.00,North,-999,-999.0,4.0,71,0.00,,,-99.99,88.000000,,2013-01-18 23:50:00,
2013-01-18 16:52:00,15.0,6.0,-100.00,North,-999,-999.0,4.0,68,0.00,,,-99.99,174.000000,,2013-01-18 23:52:00,
2013-01-18 17:02:00,15.0,6.0,-100.00,North,-999,-999.0,2.0,68,0.00,,,-99.99,116.000000,,2013-01-19 00:02:00,
2013-01-18 17:12:00,14.0,6.0,-100.00,North,-999,-999.0,4.0,71,0.00,,,-99.99,88.000000,,2013-01-19 00:12:00,
2013-01-18 17:22:00,14.0,6.0,-100.00,North,-999,-999.0,4.0,71,0.00,,,-99.99,88.000000,,2013-01-19 00:22:00,
2013-01-18 17:32:00,14.0,6.0,-100.00,North,-999,-999.0,4.0,71,0.00,,,-99.99,88.000000,,2013-01-19 00:32:00,
2013-01-18 17:42:00,14.0,6.0,-100.00,North,-999,-999.0,4.0,71,0.00,,,-99.99,88.000000,,2013-01-19 00:42:00,
2013-01-18 18:23:00,8.0,4.0,-100.00,North,-999,-999.0,4.0,84,0.00,,,-99.99,0.000000,,2013-01-19 01:23:00,
2013-01-18 18:33:00,7.0,3.0,-100.00,North,-999,-999.0,2.0,85,0.00,,,-99.99,0.000000,,2013-01-19 01:33:00,
2013-01-18 18:43:00,7.0,4.0,-100.00,North,-999,-999.0,4.0,87,0.00,,,-99.99,0.000000,,2013-01-19 01:43:00,
2013-01-18 18:52:00,7.0,5.0,-100.00,North,-999,-999.0,4.0,88,0.00,,,-99.99,0.000000,,2013-01-19 01:52:00,
2013-01-18 19:02:00,7.0,4.0,-100.00,North,-999,-999.0,4.0,87,0.00,,,-99.99,0.000000,,2013-01-19 02:02:00,
2013-01-18 19:12:00,7.0,4.0,-100.00,North,-999,-999.0,3.0,87,0.00,,,-99.99,0.000000,,2013-01-19 02:12:00,
2013-01-18 19:22:00,6.0,3.0,-100.00,North,-999,-999.0,3.0,87,0.00,,,-99.99,0.000000,,2013-01-19 02:22:00,
2013-01-18 19:32:00,7.0,4.0,-100.00,North,-999,-999.0,4.0,89,0.00,,,-99.99,0.000000,,2013-01-19 02:32:00,
2013-01-18 19:42:00,7.0,5.0,-100.00,North,-999,-999.0,4.0,89,0.00,,,-99.99,0.000000,,2013-01-19 02:42:00,
2013-01-18 19:52:00,7.0,5.0,-100.00,North,-999,-999.0,4.0,89,0.00,,,-99.99,0.000000,,2013-01-19 02:52:00,
2013-01-18 20:02:00,7.0,5.0,-100.00,North,-999,-999.0,4.0,90,0.00,,,-99.99,0.000000,,2013-01-19 03:02:00,
2013-01-18 20:11:00,7.0,5.0,-100.00,North,-999,-999.0,4.0,88,0.00,,,-99.99,0.000000,,2013-01-19 03:11:00,
2013-01-18 20:22:00,7.0,5.0,-100.00,North,-999,-999.0,4.0,89,0.00,,,-99.99,0.000000,,2013-01-19 03:22:00,
2013-01-18 20:32:00,7.0,5.0,-100.00,North,-999,-999.0,4.0,89,0.00,,,-99.99,0.000000,,2013-01-19 03:32:00,
2013-01-18 20:42:00,7.0,5.0,-100.00,North,-999,-999.0,3.0,90,0.00,,,-99.99,0.000000,,2013-01-19 03:42:00,
2013-01-18 20:52:00,7.0,5.0,-100.00,North,-999,-999.0,3.0,89,0.00,,,-99.99,0.000000,,2013-01-19 03:52:00,
2013-01-18 21:02:00,7.0,5.0,-100.00,North,-999,-999.0,3.0,90,0.00,,,-99.99,0.000000,,2013-01-19 04:02:00,
2013-01-18 21:12:00,9.0,7.0,-100.00,North,-999,-999.0,5.0,89,0.00,,,-99.99,0.000000,,2013-01-19 04:12:00,
2013-01-18 21:22:00,8.0,5.0,-100.00,North,-999,-999.0,5.0,88,0.00,,,-99.99,0.000000,,2013-01-19 04:22:00,
2013-01-18 21:32:00,9.0,6.0,-100.00,North,-999,-999.0,9.0,86,0.00,,,-99.99,0.000000,,2013-01-19 04:32:00,
2013-01-18 21:42:00,9.0,6.0,-100.00,North,-999,-999.0,8.0,86,0.00,,,-99.99,0.000000,,2013-01-19 04:42:00,
2013-01-18 21:50:00,8.0,5.0,-100.00,North,-999,-999.0,5.0,88,0.00,,,-99.99,0.000000,,2013-01-19 04:50:00,
2013-01-18 21:52:00,9.0,6.0,-100.00,North,-999,-999.0,5.0,87,0.00,,,-99.99,0.000000,,2013-01-19 04:52:00,
2013-01-18 22:03:00,9.0,6.0,-100.00,North,-999,-999.0,3.0,88,0.00,,,-99.99,0.000000,,2013-01-19 05:03:00,
2013-01-18 22:12:00,8.0,5.0,-100.00,North,-999,-999.0,5.0,88,0.00,,,-99.99,0.000000,,2013-01-19 05:12:00,
2013-01-18 22:22:00,8.0,5.0,-100.00,North,-999,-999.0,5.0,88,0.00,,,-99.99,0.000000,,2013-01-19 05:22:00,
2013-01-18 22:32:00,8.0,5.0,-100.00,North,-999,-999.0,5.0,88,0.00,,,-99.99,0.000000,,2013-01-19 05:32:00,
2013-01-18 22:42:00,8.0,5.0,-100.00,North,-999,-999.0,5.0,88,0.00,,,-99.99,0.000000,,2013-01-19 05:42:00,
2013-01-18 23:23:00,9.0,7.0,-100.00,North,-999,-999.0,9.0,88,0.00,,,-99.99,0.000000,,2013-01-19 06:23:00,
2013-01-18 23:33:00,11.0,8.0,-100.00,North,-999,-999.0,12.0,88,0.00,,,-99.99,0.000000,,2013-01-19 06:33:00,
2013-01-18 23:43:00,8.0,6.0,-100.00,North,-999,-999.0,6.0,89,0.00,,,-99.99,0.000000,,2013-01-19 06:43:00,
2013-01-18 23:53:00,9.0,6.0,-100.00,North,-999,-999.0,5.0,89,0.00,,,-99.99,0.000000,,2013-01-19 06:53:00,